Terminal Aerodrome Forecast
Issued by NWS

Home | Current Version | Previous Version | Text Only | Print | Product List | Glossary On
Versions: 1 2 3 4 5 6 7 8 9 10 11 12 13 14
952
FTUS46 KSEW 241123
TAFBLI
TAF
KBLI 241123Z 2412/2512 00000KT P6SM SKC
     FM242000 28006KT P6SM SKC
     FM250300 20004KT P6SM SKC=

USA.gov is the U.S. government's official web portal to all federal, state and local government web resources and services.